createdAt,value
2024-02-29T00:00:40.770Z,2.04
2024-02-29T00:03:10.054Z,1.94
2024-02-29T00:05:38.096Z,1.90
2024-02-29T00:08:05.035Z,1.83
2024-02-29T00:10:31.689Z,1.65
2024-02-29T00:12:58.750Z,1.80
2024-02-29T00:15:25.486Z,1.51
2024-02-29T00:17:52.349Z,1.58
2024-02-29T00:20:19.414Z,1.52
2024-02-29T00:22:47.381Z,1.67
2024-02-29T00:25:13.951Z,1.56
2024-02-29T00:27:43.318Z,1.59
2024-02-29T00:30:11.426Z,1.39
2024-02-29T00:32:38.699Z,1.53
2024-02-29T00:35:06.036Z,1.35
2024-02-29T00:37:32.674Z,1.51
2024-02-29T00:39:59.666Z,1.52
2024-02-29T00:42:26.593Z,1.31
2024-02-29T00:44:53.098Z,1.33
2024-02-29T00:47:19.517Z,1.12
2024-02-29T00:49:46.108Z,1.37
2024-02-29T00:52:12.691Z,1.51
2024-02-29T00:54:39.313Z,1.48
2024-02-29T00:57:06.063Z,1.12
2024-02-29T00:59:32.520Z,1.31
2024-02-29T01:01:59.261Z,1.21
2024-02-29T01:04:25.998Z,1.14
2024-02-29T01:06:52.699Z,1.03
2024-02-29T01:09:20.974Z,1.07
2024-02-29T01:11:49.680Z,1.02
2024-02-29T01:14:16.260Z,0.81
2024-02-29T01:16:42.812Z,1.02
2024-02-29T01:19:09.846Z,0.89
2024-02-29T01:21:36.534Z,0.87
2024-02-29T01:24:03.055Z,0.51
2024-02-29T01:26:29.836Z,0.53
2024-02-29T01:28:57.307Z,0.60
2024-02-29T01:31:23.845Z,0.37
2024-02-29T01:33:50.479Z,0.83
2024-02-29T01:36:16.945Z,0.87
2024-02-29T01:38:43.433Z,0.87
2024-02-29T01:41:10.048Z,0.78
2024-02-29T01:43:36.515Z,0.72
2024-02-29T01:46:21.587Z,0.91
2024-02-29T01:48:49.407Z,0.69
2024-02-29T01:51:18.553Z,0.92
2024-02-29T01:53:45.385Z,0.66
2024-02-29T01:56:14.038Z,0.85
2024-02-29T01:58:44.230Z,0.75
2024-02-29T02:01:11.011Z,0.68
2024-02-29T02:03:39.115Z,0.81
2024-02-29T02:06:05.951Z,0.73
2024-02-29T02:08:33.400Z,0.46
2024-02-29T02:11:00.826Z,0.40
2024-02-29T02:13:27.472Z,0.62
2024-02-29T02:15:54.273Z,0.38
2024-02-29T02:18:20.859Z,0.34
2024-02-29T02:20:47.708Z,0.36
2024-02-29T02:23:14.198Z,0.57
2024-02-29T02:25:40.710Z,0.50
2024-02-29T02:28:07.510Z,0.18
2024-02-29T02:30:34.168Z,0.40
2024-02-29T02:33:00.922Z,0.29
2024-02-29T02:35:27.556Z,0.39
2024-02-29T02:37:53.985Z,0.35
2024-02-29T02:40:20.754Z,0.19
2024-02-29T02:42:47.348Z,0.40
2024-02-29T02:45:14.037Z,0.36
2024-02-29T02:47:40.618Z,0.35
2024-02-29T02:50:07.454Z,0.39
2024-02-29T02:52:34.108Z,0.30
2024-02-29T02:55:00.823Z,0.27
2024-02-29T02:57:27.399Z,0.00
2024-02-29T02:59:54.046Z,0.28
2024-02-29T03:02:20.895Z,0.17
2024-02-29T03:04:47.554Z,0.15
2024-02-29T03:07:14.173Z,0.27
2024-02-29T03:09:40.989Z,0.18
2024-02-29T03:12:08.959Z,0.20
2024-02-29T03:14:35.386Z,0.11
2024-02-29T03:17:02.040Z,0.08
2024-02-29T03:19:28.691Z,0.17
2024-02-29T03:21:55.153Z,0.03
2024-02-29T03:24:22.268Z,0.04
2024-02-29T03:26:48.864Z,-0.02
2024-02-29T03:29:15.607Z,-0.29
2024-02-29T03:31:45.800Z,-0.12
2024-02-29T03:34:12.423Z,-0.09
2024-02-29T03:36:39.174Z,-0.08
2024-02-29T03:39:06.294Z,-0.14
2024-02-29T03:41:33.429Z,-0.26
2024-02-29T03:44:00.715Z,0.02
2024-02-29T03:46:27.277Z,-0.01
2024-02-29T03:48:53.777Z,-0.15
2024-02-29T03:51:20.471Z,-0.23
2024-02-29T03:53:47.116Z,-0.07
2024-02-29T03:56:13.797Z,-0.11
2024-02-29T03:58:40.964Z,-0.29
2024-02-29T04:01:11.878Z,-0.02
2024-02-29T04:03:40.101Z,-0.19
2024-02-29T04:06:10.051Z,0.05
2024-02-29T04:08:37.242Z,0.20
2024-02-29T04:11:04.101Z,0.32
2024-02-29T04:13:30.616Z,0.34
2024-02-29T04:15:57.142Z,0.51
2024-02-29T04:18:23.956Z,0.46
2024-02-29T04:20:51.631Z,0.43
2024-02-29T04:23:18.301Z,0.43
2024-02-29T04:25:46.577Z,0.41
2024-02-29T04:28:15.835Z,0.38
2024-02-29T04:30:43.738Z,0.31
2024-02-29T04:33:12.545Z,0.10
2024-02-29T04:35:39.125Z,0.04
2024-02-29T04:38:05.630Z,0.05
2024-02-29T04:40:32.383Z,-0.14
2024-02-29T04:42:59.164Z,0.12
2024-02-29T04:45:28.054Z,0.20
2024-02-29T04:47:55.149Z,0.05
2024-02-29T04:50:22.047Z,0.23
2024-02-29T04:52:48.693Z,0.27
2024-02-29T04:55:15.446Z,0.18
2024-02-29T04:57:42.116Z,0.28
2024-02-29T05:00:11.415Z,-0.04
2024-02-29T05:02:38.430Z,0.24
2024-02-29T05:05:07.584Z,0.00
2024-02-29T05:07:35.119Z,0.29
2024-02-29T05:10:02.227Z,0.28
2024-02-29T05:12:29.007Z,0.36
2024-02-29T05:14:55.857Z,0.25
2024-02-29T05:17:22.556Z,0.12
2024-02-29T05:19:49.530Z,0.18
2024-02-29T05:22:16.179Z,0.13
2024-02-29T05:24:43.022Z,0.23
2024-02-29T05:27:09.737Z,0.16
2024-02-29T05:29:36.493Z,-0.10
2024-02-29T05:32:03.285Z,-0.11
2024-02-29T05:34:29.812Z,0.09
2024-02-29T05:36:59.120Z,0.09
2024-02-29T05:39:25.724Z,-0.13
2024-02-29T05:41:52.382Z,-0.06
2024-02-29T05:44:19.717Z,-0.04
2024-02-29T05:46:46.402Z,0.03
2024-02-29T05:49:13.146Z,-0.13
2024-02-29T05:51:39.760Z,0.07
2024-02-29T05:54:06.380Z,0.13
2024-02-29T05:56:32.911Z,0.17
2024-02-29T05:59:00.058Z,0.03
2024-02-29T06:01:29.481Z,0.13
2024-02-29T06:03:56.415Z,0.15
2024-02-29T06:06:25.099Z,0.12
2024-02-29T06:08:51.651Z,0.25
2024-02-29T06:11:19.844Z,0.17
2024-02-29T06:13:46.403Z,0.25
2024-02-29T06:16:14.547Z,0.41
2024-02-29T06:18:43.814Z,0.03
2024-02-29T06:21:10.957Z,0.09
2024-02-29T06:23:37.856Z,0.31
2024-02-29T06:26:04.802Z,0.46
2024-02-29T06:28:31.435Z,0.14
2024-02-29T06:30:58.050Z,0.28
2024-02-29T06:33:24.762Z,0.01
2024-02-29T06:35:51.998Z,0.07
2024-02-29T06:38:18.663Z,0.34
2024-02-29T06:40:46.259Z,0.28
2024-02-29T06:43:12.729Z,-0.01
2024-02-29T06:45:46.223Z,-0.17
2024-02-29T06:48:12.817Z,-0.13
2024-02-29T06:50:39.454Z,0.24
2024-02-29T06:53:06.098Z,-0.01
2024-02-29T06:55:33.188Z,0.18
2024-02-29T06:58:00.369Z,0.03
2024-02-29T07:00:27.293Z,0.29
2024-02-29T07:02:53.981Z,0.41
2024-02-29T07:05:20.780Z,0.55
2024-02-29T07:07:47.455Z,0.14
2024-02-29T07:10:14.190Z,0.15
2024-02-29T07:12:41.935Z,0.01
2024-02-29T07:15:09.114Z,0.12
2024-02-29T07:17:35.782Z,0.06
2024-02-29T07:20:04.949Z,0.22
2024-02-29T07:22:32.433Z,0.49
2024-02-29T07:25:02.147Z,0.43
2024-02-29T07:27:28.879Z,0.71
2024-02-29T07:29:55.439Z,0.69
2024-02-29T07:32:22.064Z,0.80
2024-02-29T07:34:48.776Z,0.90
2024-02-29T07:37:15.429Z,0.78
2024-02-29T07:39:42.126Z,0.78
2024-02-29T07:42:10.230Z,0.60
2024-02-29T07:44:36.935Z,0.79
2024-02-29T07:47:03.965Z,0.89
2024-02-29T07:49:33.004Z,0.73
2024-02-29T07:51:59.769Z,0.95
2024-02-29T07:54:26.523Z,0.99
2024-02-29T07:56:53.331Z,1.55
2024-02-29T07:59:20.058Z,1.39
2024-02-29T08:01:46.611Z,1.36
2024-02-29T08:04:13.609Z,1.39
2024-02-29T08:06:40.178Z,1.59
2024-02-29T08:09:09.545Z,1.72
2024-02-29T08:11:37.525Z,2.49
2024-02-29T08:14:04.206Z,2.38
2024-02-29T08:16:30.756Z,2.12
2024-02-29T08:18:57.305Z,2.01
2024-02-29T08:21:23.845Z,2.24
2024-02-29T08:23:50.417Z,2.28
2024-02-29T08:26:16.991Z,2.53
2024-02-29T08:28:44.555Z,2.32
2024-02-29T08:31:13.409Z,2.43
2024-02-29T08:33:40.065Z,2.38
2024-02-29T08:36:06.734Z,2.53
2024-02-29T08:38:35.331Z,2.91
2024-02-29T08:41:03.357Z,3.00
2024-02-29T08:43:30.030Z,2.85
2024-02-29T08:45:56.879Z,3.05
2024-02-29T08:48:24.190Z,3.04
2024-02-29T08:50:50.775Z,3.85
2024-02-29T08:53:17.342Z,3.70
2024-02-29T08:55:43.911Z,3.33
2024-02-29T08:58:11.550Z,3.01
2024-02-29T09:00:38.135Z,2.64
2024-02-29T09:03:05.106Z,2.92
2024-02-29T09:05:34.790Z,2.82
2024-02-29T09:08:01.438Z,3.17
2024-02-29T09:10:28.719Z,4.14
2024-02-29T09:12:55.952Z,4.37
2024-02-29T09:15:22.513Z,4.31
2024-02-29T09:17:48.996Z,4.09
2024-02-29T09:20:15.681Z,4.07
2024-02-29T09:22:42.148Z,4.64
2024-02-29T09:25:09.271Z,5.14
2024-02-29T09:27:35.862Z,4.98
2024-02-29T09:30:02.500Z,4.48
2024-02-29T09:32:30.074Z,4.59
2024-02-29T09:34:56.649Z,4.10
2024-02-29T09:37:23.311Z,4.37
2024-02-29T09:39:49.978Z,4.13
2024-02-29T09:42:17.223Z,4.49
2024-02-29T09:44:44.774Z,4.44
2024-02-29T09:47:13.823Z,4.72
2024-02-29T09:49:41.950Z,5.19
2024-02-29T09:52:09.535Z,5.33
2024-02-29T09:54:40.810Z,5.09
2024-02-29T09:57:13.112Z,4.39
2024-02-29T09:59:43.050Z,4.81
2024-02-29T10:02:15.408Z,4.71
2024-02-29T10:04:41.960Z,4.76
2024-02-29T10:07:08.667Z,4.74
2024-02-29T10:09:35.217Z,4.89
2024-02-29T10:12:03.337Z,5.60
2024-02-29T10:14:32.736Z,6.14
2024-02-29T10:17:00.078Z,6.58
2024-02-29T10:19:26.834Z,6.82
2024-02-29T10:21:53.789Z,6.56
2024-02-29T10:24:21.394Z,6.87
2024-02-29T10:26:48.161Z,7.29
2024-02-29T10:29:17.242Z,7.00
2024-02-29T10:31:44.360Z,7.43
2024-02-29T10:34:12.189Z,8.16
2024-02-29T10:36:39.750Z,8.44
2024-02-29T10:39:06.608Z,8.55
2024-02-29T10:41:33.803Z,8.38
2024-02-29T10:44:07.452Z,8.21
2024-02-29T10:46:36.093Z,9.14
2024-02-29T10:49:12.866Z,9.68
2024-02-29T10:51:55.267Z,8.96
2024-02-29T10:54:29.125Z,9.49
2024-02-29T10:56:56.745Z,9.47
2024-02-29T10:59:24.800Z,9.96
2024-02-29T11:01:59.262Z,9.48
2024-02-29T11:04:27.052Z,9.45
2024-02-29T11:06:54.161Z,9.71
2024-02-29T11:09:28.120Z,9.72
2024-02-29T11:12:23.076Z,10.38
2024-02-29T11:14:50.558Z,10.84
2024-02-29T11:17:18.245Z,11.28
2024-02-29T11:19:54.468Z,11.49
2024-02-29T11:22:35.892Z,10.94
2024-02-29T11:25:12.084Z,11.65
2024-02-29T11:27:47.092Z,11.85
2024-02-29T11:30:18.672Z,11.39
2024-02-29T11:32:45.222Z,11.51
2024-02-29T11:35:12.879Z,11.73
2024-02-29T11:37:40.876Z,12.21
2024-02-29T11:40:09.620Z,12.14
2024-02-29T11:42:37.533Z,11.79
2024-02-29T11:45:04.682Z,11.93
2024-02-29T11:47:31.677Z,12.79
2024-02-29T11:50:02.271Z,13.47
2024-02-29T11:52:28.985Z,12.98
2024-02-29T11:54:55.719Z,13.18
2024-02-29T11:57:24.477Z,13.30
2024-02-29T11:59:53.428Z,12.63
2024-02-29T12:02:21.366Z,12.58
2024-02-29T12:04:49.457Z,12.96
2024-02-29T12:07:17.803Z,12.63
2024-02-29T12:09:45.967Z,12.69
2024-02-29T12:12:13.662Z,13.54
2024-02-29T12:14:41.745Z,13.91
2024-02-29T12:17:09.141Z,13.93
2024-02-29T12:19:36.184Z,13.53
2024-02-29T12:22:04.114Z,13.21
2024-02-29T12:24:32.387Z,13.18
2024-02-29T12:26:59.284Z,13.16
2024-02-29T12:29:25.956Z,13.05
2024-02-29T12:31:52.634Z,13.17
2024-02-29T12:34:19.200Z,13.60
2024-02-29T12:36:47.032Z,13.43
2024-02-29T12:39:19.831Z,13.56
2024-02-29T12:41:46.560Z,13.64
2024-02-29T12:44:13.139Z,13.67
2024-02-29T12:46:39.706Z,13.56
2024-02-29T12:49:08.646Z,13.81
2024-02-29T12:51:35.151Z,13.30
2024-02-29T12:54:01.745Z,13.91
2024-02-29T12:56:28.520Z,13.47
2024-02-29T12:58:54.985Z,13.71
2024-02-29T13:01:21.633Z,13.70
2024-02-29T13:03:48.644Z,13.65
2024-02-29T13:06:15.344Z,13.08
2024-02-29T13:08:42.104Z,13.00
2024-02-29T13:11:08.552Z,12.75
2024-02-29T13:13:35.225Z,12.60
2024-02-29T13:16:02.007Z,12.89
2024-02-29T13:18:28.661Z,12.64
2024-02-29T13:20:55.590Z,12.27
2024-02-29T13:23:22.272Z,11.88
2024-02-29T13:25:49.241Z,12.04
2024-02-29T13:28:16.125Z,12.20
2024-02-29T13:30:42.729Z,12.27
2024-02-29T13:33:09.651Z,12.46
2024-02-29T13:35:36.177Z,12.57
2024-02-29T13:38:02.790Z,12.33
2024-02-29T13:40:29.668Z,12.59
2024-02-29T13:42:56.343Z,12.62
2024-02-29T13:45:22.845Z,12.74
2024-02-29T13:47:51.963Z,12.59
2024-02-29T13:50:20.474Z,12.90
2024-02-29T13:52:47.290Z,12.90
2024-02-29T13:55:13.994Z,12.58
2024-02-29T13:57:41.309Z,12.59
2024-02-29T14:00:09.876Z,12.88
2024-02-29T14:02:36.891Z,13.09
2024-02-29T14:05:07.121Z,12.88
2024-02-29T14:07:34.220Z,12.55
2024-02-29T14:10:00.823Z,12.67
2024-02-29T14:12:28.480Z,13.16
2024-02-29T14:14:55.012Z,12.82
2024-02-29T14:17:21.828Z,13.08
2024-02-29T14:19:48.380Z,13.01
2024-02-29T14:22:15.330Z,12.67
2024-02-29T14:24:42.188Z,12.67
2024-02-29T14:27:08.873Z,12.88
2024-02-29T14:29:38.356Z,12.90
2024-02-29T14:32:05.706Z,13.06
2024-02-29T14:34:35.907Z,12.72
2024-02-29T14:37:05.649Z,12.77
2024-02-29T14:39:34.333Z,12.58
2024-02-29T14:42:00.883Z,12.43
2024-02-29T14:44:27.433Z,12.55
2024-02-29T14:46:55.637Z,12.79
2024-02-29T14:49:22.334Z,12.45
2024-02-29T14:51:49.238Z,12.44
2024-02-29T14:54:15.977Z,12.28
2024-02-29T14:56:44.389Z,12.10
2024-02-29T14:59:11.995Z,11.72
2024-02-29T15:01:38.998Z,11.91
2024-02-29T15:04:05.618Z,11.98
2024-02-29T15:06:32.167Z,11.87
2024-02-29T15:08:58.759Z,11.73
2024-02-29T15:11:27.330Z,11.62
2024-02-29T15:13:54.511Z,11.67
2024-02-29T15:16:21.224Z,11.35
2024-02-29T15:18:48.089Z,11.25
2024-02-29T15:21:14.813Z,11.54
2024-02-29T15:23:41.548Z,11.43
2024-02-29T15:26:11.703Z,11.48
2024-02-29T15:28:42.072Z,11.32
2024-02-29T15:31:09.373Z,11.14
2024-02-29T15:33:36.105Z,11.18
2024-02-29T15:36:02.623Z,10.85
2024-02-29T15:38:29.225Z,10.79
2024-02-29T15:40:56.000Z,10.78
2024-02-29T15:43:22.716Z,10.91
2024-02-29T15:45:49.474Z,10.76
2024-02-29T15:48:16.743Z,10.70
2024-02-29T15:50:43.389Z,10.62
2024-02-29T15:53:09.907Z,10.60
2024-02-29T15:55:36.440Z,10.52
2024-02-29T15:58:05.090Z,10.32
2024-02-29T16:00:32.472Z,10.26
2024-02-29T16:02:59.106Z,10.18
2024-02-29T16:05:28.000Z,10.27
2024-02-29T16:07:56.021Z,10.20
2024-02-29T16:10:22.904Z,9.57
2024-02-29T16:12:49.735Z,9.85
2024-02-29T16:15:16.744Z,9.79
2024-02-29T16:17:43.438Z,9.69
2024-02-29T16:20:11.364Z,9.77
2024-02-29T16:22:37.975Z,9.83
2024-02-29T16:25:05.306Z,9.40
2024-02-29T16:27:32.380Z,9.45
2024-02-29T16:29:58.982Z,9.37
2024-02-29T16:32:25.489Z,9.45
2024-02-29T16:34:51.931Z,9.40
2024-02-29T16:37:18.547Z,9.15
2024-02-29T16:39:45.123Z,9.30
2024-02-29T16:42:11.854Z,9.26
2024-02-29T16:44:38.291Z,9.04
2024-02-29T16:47:05.097Z,9.20
2024-02-29T16:49:31.770Z,9.01
2024-02-29T16:51:58.732Z,9.06
2024-02-29T16:54:25.882Z,8.89
2024-02-29T16:56:52.601Z,8.88
2024-02-29T16:59:19.160Z,8.56
2024-02-29T17:01:45.678Z,8.56
2024-02-29T17:04:12.313Z,8.54
2024-02-29T17:06:39.107Z,8.75
2024-02-29T17:09:06.064Z,8.63
2024-02-29T17:11:33.030Z,8.36
2024-02-29T17:13:59.632Z,8.46
2024-02-29T17:16:26.418Z,8.35
2024-02-29T17:18:53.141Z,8.42
2024-02-29T17:21:21.357Z,8.17
2024-02-29T17:23:47.815Z,8.20
2024-02-29T17:26:18.150Z,7.98
2024-02-29T17:28:44.704Z,8.13
2024-02-29T17:31:11.297Z,7.89
2024-02-29T17:33:41.320Z,7.99
2024-02-29T17:36:07.982Z,7.93
2024-02-29T17:38:34.647Z,7.99
2024-02-29T17:41:01.189Z,7.91
2024-02-29T17:43:27.957Z,7.85
2024-02-29T17:45:54.652Z,7.84
2024-02-29T17:48:21.105Z,7.79
2024-02-29T17:50:47.745Z,7.74
2024-02-29T17:53:14.251Z,7.41
2024-02-29T17:55:40.704Z,7.53
2024-02-29T17:58:07.267Z,7.55
2024-02-29T18:00:33.740Z,7.51
2024-02-29T18:03:01.829Z,7.55
2024-02-29T18:05:29.890Z,7.29
2024-02-29T18:08:02.258Z,7.42
2024-02-29T18:10:30.335Z,7.41
2024-02-29T18:12:58.672Z,7.32
2024-02-29T18:15:26.360Z,7.26
2024-02-29T18:17:53.125Z,7.31
2024-02-29T18:20:20.837Z,7.15
2024-02-29T18:22:47.460Z,7.17
2024-02-29T18:25:14.362Z,7.13
2024-02-29T18:27:40.992Z,7.01
2024-02-29T18:30:11.725Z,7.15
2024-02-29T18:32:38.335Z,7.19
2024-02-29T18:35:09.906Z,7.11
2024-02-29T18:37:38.639Z,7.03
2024-02-29T18:40:05.956Z,6.91
2024-02-29T18:42:32.499Z,6.80
2024-02-29T18:45:01.866Z,7.00
2024-02-29T18:47:28.779Z,6.61
2024-02-29T18:49:55.450Z,6.84
2024-02-29T18:52:21.989Z,6.78
2024-02-29T18:54:50.551Z,6.67
2024-02-29T18:57:17.121Z,6.68
2024-02-29T18:59:43.557Z,6.61
2024-02-29T19:02:10.121Z,6.45
2024-02-29T19:04:37.089Z,6.53
2024-02-29T19:07:03.841Z,6.28
2024-02-29T19:09:32.696Z,6.42
2024-02-29T19:11:59.191Z,6.42
2024-02-29T19:14:26.235Z,6.06
2024-02-29T19:16:55.589Z,6.28
2024-02-29T19:19:22.502Z,6.23
2024-02-29T19:21:49.233Z,6.29
2024-02-29T19:24:15.877Z,6.34
2024-02-29T19:26:44.521Z,6.30
2024-02-29T19:29:11.371Z,5.94
2024-02-29T19:31:40.954Z,6.11
2024-02-29T19:34:08.061Z,5.85
2024-02-29T19:36:34.792Z,5.94
2024-02-29T19:39:01.278Z,5.71
2024-02-29T19:41:28.014Z,5.58
2024-02-29T19:43:54.685Z,5.74
2024-02-29T19:46:21.333Z,5.62
2024-02-29T19:48:47.896Z,5.33
2024-02-29T19:51:15.631Z,5.31
2024-02-29T19:53:44.995Z,5.47
2024-02-29T19:56:12.216Z,5.12
2024-02-29T19:58:39.605Z,5.14
2024-02-29T20:01:07.081Z,5.36
2024-02-29T20:03:33.850Z,5.28
2024-02-29T20:06:01.178Z,5.19
2024-02-29T20:08:27.926Z,5.24
2024-02-29T20:10:54.562Z,5.04
2024-02-29T20:13:21.249Z,5.18
2024-02-29T20:15:48.904Z,5.14
2024-02-29T20:18:17.572Z,4.99
2024-02-29T20:20:44.322Z,4.81
2024-02-29T20:23:11.100Z,4.72
2024-02-29T20:25:37.746Z,4.73
2024-02-29T20:28:04.605Z,4.54
2024-02-29T20:30:31.307Z,4.69
2024-02-29T20:32:57.891Z,4.71
2024-02-29T20:35:24.630Z,4.56
2024-02-29T20:37:51.060Z,4.65
2024-02-29T20:40:18.437Z,4.45
2024-02-29T20:42:45.532Z,4.41
2024-02-29T20:45:15.284Z,4.58
2024-02-29T20:47:44.618Z,4.36
2024-02-29T20:50:11.675Z,4.60
2024-02-29T20:52:38.242Z,4.56
2024-02-29T20:55:05.304Z,4.31
2024-02-29T20:57:33.689Z,4.50
2024-02-29T21:00:00.798Z,4.40
2024-02-29T21:02:29.626Z,4.17
2024-02-29T21:04:59.177Z,4.38
2024-02-29T21:07:26.018Z,4.25
2024-02-29T21:09:53.029Z,4.04
2024-02-29T21:12:19.636Z,4.16
2024-02-29T21:14:46.163Z,4.05
2024-02-29T21:17:13.305Z,4.21
2024-02-29T21:19:40.399Z,3.79
2024-02-29T21:22:07.661Z,3.98
2024-02-29T21:24:34.233Z,4.01
2024-02-29T21:27:00.977Z,4.10
2024-02-29T21:29:27.484Z,3.93
2024-02-29T21:31:53.901Z,3.71
2024-02-29T21:34:21.260Z,3.77
2024-02-29T21:36:48.794Z,3.90
2024-02-29T21:39:18.983Z,3.93
2024-02-29T21:41:48.247Z,3.85
2024-02-29T21:44:14.625Z,3.73
2024-02-29T21:46:41.071Z,3.59
2024-02-29T21:49:07.636Z,3.81
2024-02-29T21:51:34.292Z,3.57
2024-02-29T21:54:00.780Z,3.81
2024-02-29T21:56:27.695Z,3.66
2024-02-29T21:58:54.280Z,3.64
2024-02-29T22:01:21.142Z,3.83
2024-02-29T22:03:47.716Z,3.64
2024-02-29T22:06:14.249Z,3.33
2024-02-29T22:08:43.699Z,3.07
2024-02-29T22:11:10.489Z,3.23
2024-02-29T22:13:38.441Z,3.35
2024-02-29T22:16:05.232Z,3.47
2024-02-29T22:18:32.056Z,3.23
2024-02-29T22:20:58.541Z,3.21
2024-02-29T22:23:25.116Z,3.27
2024-02-29T22:25:51.549Z,2.89
2024-02-29T22:28:18.294Z,3.15
2024-02-29T22:30:46.540Z,3.27
2024-02-29T22:33:14.127Z,3.00
2024-02-29T22:35:40.892Z,2.87
2024-02-29T22:38:07.905Z,2.90
2024-02-29T22:40:34.463Z,2.91
2024-02-29T22:43:00.972Z,2.61
2024-02-29T22:45:27.600Z,2.89
2024-02-29T22:47:54.151Z,2.71
2024-02-29T22:50:20.725Z,2.81
2024-02-29T22:52:47.197Z,2.78
2024-02-29T22:55:13.924Z,2.48
2024-02-29T22:57:40.437Z,2.80
2024-02-29T23:00:24.481Z,2.53
2024-02-29T23:02:51.622Z,2.58
2024-02-29T23:05:18.206Z,2.67
2024-02-29T23:07:47.353Z,2.70
2024-02-29T23:10:15.311Z,2.69
2024-02-29T23:12:45.639Z,2.64
2024-02-29T23:15:12.425Z,2.46
2024-02-29T23:17:40.138Z,2.38
2024-02-29T23:20:07.278Z,2.28
2024-02-29T23:22:34.391Z,2.30
2024-02-29T23:25:00.926Z,2.53
2024-02-29T23:27:27.513Z,2.52
2024-02-29T23:29:53.977Z,2.53
2024-02-29T23:32:20.506Z,2.41
2024-02-29T23:34:46.965Z,2.41
2024-02-29T23:37:13.639Z,2.48
2024-02-29T23:39:40.142Z,2.41
2024-02-29T23:42:06.839Z,2.38
2024-02-29T23:44:33.383Z,2.60
2024-02-29T23:47:00.447Z,2.42
2024-02-29T23:49:27.105Z,2.45
2024-02-29T23:51:53.668Z,2.50
2024-02-29T23:54:20.114Z,2.46
2024-02-29T23:56:46.484Z,2.44
2024-02-29T23:59:13.076Z,2.21
